sensor_id;sensor_type;location;lat;lon;timestamp;temperature;humidity
19947;DHT22;10135;50.702;7.276;2024-01-06T06:32:03;10.50;64.40
19947;DHT22;10135;50.702;7.276;2024-01-06T06:34:03;10.40;64.00
19947;DHT22;10135;50.702;7.276;2024-01-06T06:36:04;10.40;64.10
19947;DHT22;10135;50.702;7.276;2024-01-06T06:38:05;10.50;64.10
19947;DHT22;10135;50.702;7.276;2024-01-06T06:40:07;10.40;64.30
19947;DHT22;10135;50.702;7.276;2024-01-06T06:42:08;10.40;64.30
19947;DHT22;10135;50.702;7.276;2024-01-06T06:44:08;10.40;64.30
19947;DHT22;10135;50.702;7.276;2024-01-06T06:46:09;10.40;64.30
19947;DHT22;10135;50.702;7.276;2024-01-06T06:48:10;10.40;64.30
19947;DHT22;10135;50.702;7.276;2024-01-06T06:50:11;10.40;64.70
19947;DHT22;10135;50.702;7.276;2024-01-06T06:52:11;10.40;64.50
19947;DHT22;10135;50.702;7.276;2024-01-06T06:54:16;10.40;64.50
19947;DHT22;10135;50.702;7.276;2024-01-06T06:56:17;10.40;64.60
19947;DHT22;10135;50.702;7.276;2024-01-06T06:58:17;10.40;64.70
19947;DHT22;10135;50.702;7.276;2024-01-06T07:00:18;10.40;64.70
19947;DHT22;10135;50.702;7.276;2024-01-06T07:02:19;10.40;64.60
19947;DHT22;10135;50.702;7.276;2024-01-06T07:04:20;10.40;64.70
19947;DHT22;10135;50.702;7.276;2024-01-06T07:06:20;10.30;64.60
19947;DHT22;10135;50.702;7.276;2024-01-06T07:08:21;10.30;64.60
19947;DHT22;10135;50.702;7.276;2024-01-06T07:10:22;10.30;64.50
19947;DHT22;10135;50.702;7.276;2024-01-06T07:12:23;10.30;64.60
19947;DHT22;10135;50.702;7.276;2024-01-06T07:14:23;10.30;64.50
19947;DHT22;10135;50.702;7.276;2024-01-06T07:16:24;10.20;64.50
19947;DHT22;10135;50.702;7.276;2024-01-06T07:18:25;10.20;64.50
19947;DHT22;10135;50.702;7.276;2024-01-06T07:20:26;10.20;64.50
19947;DHT22;10135;50.702;7.276;2024-01-06T07:22:27;10.20;64.60
19947;DHT22;10135;50.702;7.276;2024-01-06T07:24:27;10.10;64.50
19947;DHT22;10135;50.702;7.276;2024-01-06T07:26:28;10.10;64.50
19947;DHT22;10135;50.702;7.276;2024-01-06T07:28:29;10.10;64.70
19947;DHT22;10135;50.702;7.276;2024-01-06T07:30:29;10.10;64.60
19947;DHT22;10135;50.702;7.276;2024-01-06T07:32:31;10.00;64.50
19947;DHT22;10135;50.702;7.276;2024-01-06T07:34:31;10.00;64.60
19947;DHT22;10135;50.702;7.276;2024-01-06T07:36:32;10.00;65.40
19947;DHT22;10135;50.702;7.276;2024-01-06T07:38:33;10.00;64.70
19947;DHT22;10135;50.702;7.276;2024-01-06T07:40:33;9.90;64.80
19947;DHT22;10135;50.702;7.276;2024-01-06T07:42:34;9.90;64.80
19947;DHT22;10135;50.702;7.276;2024-01-06T07:44:35;9.90;64.80
19947;DHT22;10135;50.702;7.276;2024-01-06T07:46:36;9.90;64.80
19947;DHT22;10135;50.702;7.276;2024-01-06T07:48:37;9.90;64.80
19947;DHT22;10135;50.702;7.276;2024-01-06T07:50:38;9.90;64.80
19947;DHT22;10135;50.702;7.276;2024-01-06T07:52:38;9.90;64.90
19947;DHT22;10135;50.702;7.276;2024-01-06T07:54:39;9.80;64.90
19947;DHT22;10135;50.702;7.276;2024-01-06T07:56:39;9.90;65.00
19947;DHT22;10135;50.702;7.276;2024-01-06T07:58:40;9.90;65.00
19947;DHT22;10135;50.702;7.276;2024-01-06T08:00:41;9.90;65.10
19947;DHT22;10135;50.702;7.276;2024-01-06T08:02:41;9.90;65.10
19947;DHT22;10135;50.702;7.276;2024-01-06T08:04:42;9.90;65.10
19947;DHT22;10135;50.702;7.276;2024-01-06T08:06:43;9.90;65.10
19947;DHT22;10135;50.702;7.276;2024-01-06T08:08:44;9.80;65.00
19947;DHT22;10135;50.702;7.276;2024-01-06T08:10:46;9.80;65.00
19947;DHT22;10135;50.702;7.276;2024-01-06T08:12:46;9.80;65.00
19947;DHT22;10135;50.702;7.276;2024-01-06T08:14:48;9.80;64.90
19947;DHT22;10135;50.702;7.276;2024-01-06T08:16:49;9.80;64.90
19947;DHT22;10135;50.702;7.276;2024-01-06T08:18:49;9.80;64.90
19947;DHT22;10135;50.702;7.276;2024-01-06T08:20:50;9.80;65.00
19947;DHT22;10135;50.702;7.276;2024-01-06T08:22:50;9.80;65.00
19947;DHT22;10135;50.702;7.276;2024-01-06T08:24:51;9.70;65.00
19947;DHT22;10135;50.702;7.276;2024-01-06T08:26:52;9.70;65.60
19947;DHT22;10135;50.702;7.276;2024-01-06T08:28:53;9.70;65.00
19947;DHT22;10135;50.702;7.276;2024-01-06T08:30:53;9.70;65.00
19947;DHT22;10135;50.702;7.276;2024-01-06T08:32:54;9.70;65.70
19947;DHT22;10135;50.702;7.276;2024-01-06T08:34:55;9.70;65.00
19947;DHT22;10135;50.702;7.276;2024-01-06T08:36:55;9.70;65.00
19947;DHT22;10135;50.702;7.276;2024-01-06T08:38:56;9.70;65.00
19947;DHT22;10135;50.702;7.276;2024-01-06T08:40:56;9.60;65.00
19947;DHT22;10135;50.702;7.276;2024-01-06T08:42:57;9.60;65.10
19947;DHT22;10135;50.702;7.276;2024-01-06T08:44:58;9.60;65.00
19947;DHT22;10135;50.702;7.276;2024-01-06T08:46:58;9.60;65.00
19947;DHT22;10135;50.702;7.276;2024-01-06T08:48:59;9.60;65.10
19947;DHT22;10135;50.702;7.276;2024-01-06T08:51:00;9.60;65.20
19947;DHT22;10135;50.702;7.276;2024-01-06T08:53:01;9.60;65.10
19947;DHT22;10135;50.702;7.276;2024-01-06T08:55:02;9.60;65.20
19947;DHT22;10135;50.702;7.276;2024-01-06T08:57:03;9.60;65.20
19947;DHT22;10135;50.702;7.276;2024-01-06T08:59:03;9.60;65.20
19947;DHT22;10135;50.702;7.276;2024-01-06T09:01:04;9.60;65.20
19947;DHT22;10135;50.702;7.276;2024-01-06T09:03:05;9.60;65.20
19947;DHT22;10135;50.702;7.276;2024-01-06T09:05:06;9.70;65.30
19947;DHT22;10135;50.702;7.276;2024-01-06T09:07:06;9.60;65.20
19947;DHT22;10135;50.702;7.276;2024-01-06T09:09:07;9.60;65.20
19947;DHT22;10135;50.702;7.276;2024-01-06T09:11:10;9.60;65.20
19947;DHT22;10135;50.702;7.276;2024-01-06T09:13:10;9.60;65.30
19947;DHT22;10135;50.702;7.276;2024-01-06T09:15:11;9.60;65.30
19947;DHT22;10135;50.702;7.276;2024-01-06T09:17:12;9.60;65.20
19947;DHT22;10135;50.702;7.276;2024-01-06T09:19:13;9.60;65.40
19947;DHT22;10135;50.702;7.276;2024-01-06T09:21:14;9.60;66.10
19947;DHT22;10135;50.702;7.276;2024-01-06T09:23:15;9.60;65.40
19947;DHT22;10135;50.702;7.276;2024-01-06T09:25:16;9.60;65.40
19947;DHT22;10135;50.702;7.276;2024-01-06T09:27:17;9.60;65.40
19947;DHT22;10135;50.702;7.276;2024-01-06T09:29:18;9.60;65.40
19947;DHT22;10135;50.702;7.276;2024-01-06T09:31:18;9.60;65.50
19947;DHT22;10135;50.702;7.276;2024-01-06T09:33:19;9.60;65.40
19947;DHT22;10135;50.702;7.276;2024-01-06T09:35:20;9.60;65.40
19947;DHT22;10135;50.702;7.276;2024-01-06T09:37:20;9.60;65.50
19947;DHT22;10135;50.702;7.276;2024-01-06T09:39:22;9.60;65.50
19947;DHT22;10135;50.702;7.276;2024-01-06T09:41:23;9.60;65.50
19947;DHT22;10135;50.702;7.276;2024-01-06T09:43:25;9.60;65.50
19947;DHT22;10135;50.702;7.276;2024-01-06T09:45:26;9.60;65.60
19947;DHT22;10135;50.702;7.276;2024-01-06T09:47:28;9.50;65.40
19947;DHT22;10135;50.702;7.276;2024-01-06T09:49:32;9.50;65.60
19947;DHT22;10135;50.702;7.276;2024-01-06T09:51:39;9.50;65.50
19947;DHT22;10135;50.702;7.276;2024-01-06T09:53:47;9.50;65.60
19947;DHT22;10135;50.702;7.276;2024-01-06T09:55:49;9.50;65.70
19947;DHT22;10135;50.702;7.276;2024-01-06T09:57:53;9.50;65.60
19947;DHT22;10135;50.702;7.276;2024-01-06T09:59:56;9.50;65.60
19947;DHT22;10135;50.702;7.276;2024-01-06T10:01:57;9.50;65.60
19947;DHT22;10135;50.702;7.276;2024-01-06T10:03:58;9.50;65.70
19947;DHT22;10135;50.702;7.276;2024-01-06T10:05:58;9.50;65.60
19947;DHT22;10135;50.702;7.276;2024-01-06T10:08:03;9.50;65.60
19947;DHT22;10135;50.702;7.276;2024-01-06T10:10:07;9.50;65.60
19947;DHT22;10135;50.702;7.276;2024-01-06T10:12:08;9.50;65.70
19947;DHT22;10135;50.702;7.276;2024-01-06T10:14:09;9.50;65.70
19947;DHT22;10135;50.702;7.276;2024-01-06T10:16:10;9.50;65.70
19947;DHT22;10135;50.702;7.276;2024-01-06T10:18:11;9.40;65.80
19947;DHT22;10135;50.702;7.276;2024-01-06T10:20:13;9.40;65.80
19947;DHT22;10135;50.702;7.276;2024-01-06T10:22:15;9.40;65.80
19947;DHT22;10135;50.702;7.276;2024-01-06T10:24:18;9.40;65.80
19947;DHT22;10135;50.702;7.276;2024-01-06T10:26:18;9.40;65.80
19947;DHT22;10135;50.702;7.276;2024-01-06T10:28:21;9.40;65.80
19947;DHT22;10135;50.702;7.276;2024-01-06T10:30:25;9.40;65.90
19947;DHT22;10135;50.702;7.276;2024-01-06T10:32:25;9.40;65.80
19947;DHT22;10135;50.702;7.276;2024-01-06T10:34:29;9.40;65.90
19947;DHT22;10135;50.702;7.276;2024-01-06T10:36:32;9.40;65.80
19947;DHT22;10135;50.702;7.276;2024-01-06T10:38:33;9.40;65.90
19947;DHT22;10135;50.702;7.276;2024-01-06T10:40:34;9.40;65.90
19947;DHT22;10135;50.702;7.276;2024-01-06T10:42:36;9.40;66.00
19947;DHT22;10135;50.702;7.276;2024-01-06T10:44:40;9.40;66.00
19947;DHT22;10135;50.702;7.276;2024-01-06T10:46:44;9.40;66.00
19947;DHT22;10135;50.702;7.276;2024-01-06T10:48:46;9.40;66.00
19947;DHT22;10135;50.702;7.276;2024-01-06T10:50:48;9.40;66.00
19947;DHT22;10135;50.702;7.276;2024-01-06T10:52:50;9.40;66.00
19947;DHT22;10135;50.702;7.276;2024-01-06T10:54:54;9.40;66.00
19947;DHT22;10135;50.702;7.276;2024-01-06T10:56:57;9.40;66.10
19947;DHT22;10135;50.702;7.276;2024-01-06T10:59:00;9.40;66.10
19947;DHT22;10135;50.702;7.276;2024-01-06T11:01:03;9.50;66.10
19947;DHT22;10135;50.702;7.276;2024-01-06T11:03:05;9.50;66.20
19947;DHT22;10135;50.702;7.276;2024-01-06T11:05:06;9.50;66.20
19947;DHT22;10135;50.702;7.276;2024-01-06T11:07:08;9.50;66.10
19947;DHT22;10135;50.702;7.276;2024-01-06T11:09:26;9.50;66.10
19947;DHT22;10135;50.702;7.276;2024-01-06T11:11:31;9.50;66.40
19947;DHT22;10135;50.702;7.276;2024-01-06T11:13:33;9.50;65.90
19947;DHT22;10135;50.702;7.276;2024-01-06T11:15:44;9.50;65.90
19947;DHT22;10135;50.702;7.276;2024-01-06T11:17:57;9.50;66.00
19947;DHT22;10135;50.702;7.276;2024-01-06T11:20:05;9.50;66.10
19947;DHT22;10135;50.702;7.276;2024-01-06T11:22:32;9.40;66.00
19947;DHT22;10135;50.702;7.276;2024-01-06T11:24:37;9.50;66.30
19947;DHT22;10135;50.702;7.276;2024-01-06T11:26:39;9.50;65.90
19947;DHT22;10135;50.702;7.276;2024-01-06T11:28:46;9.40;65.80
19947;DHT22;10135;50.702;7.276;2024-01-06T11:31:05;9.40;65.90
19947;DHT22;10135;50.702;7.276;2024-01-06T11:33:09;9.40;66.10
19947;DHT22;10135;50.702;7.276;2024-01-06T11:35:12;9.40;65.80
19947;DHT22;10135;50.702;7.276;2024-01-06T11:37:13;9.40;65.90
19947;DHT22;10135;50.702;7.276;2024-01-06T11:39:36;9.30;65.80
19947;DHT22;10135;50.702;7.276;2024-01-06T11:41:51;9.40;66.30
19947;DHT22;10135;50.702;7.276;2024-01-06T11:43:52;9.30;66.00
19947;DHT22;10135;50.702;7.276;2024-01-06T11:45:54;9.30;65.80
19947;DHT22;10135;50.702;7.276;2024-01-06T11:48:02;9.30;65.80
19947;DHT22;10135;50.702;7.276;2024-01-06T11:50:05;9.30;65.80
19947;DHT22;10135;50.702;7.276;2024-01-06T11:52:06;9.30;65.90
19947;DHT22;10135;50.702;7.276;2024-01-06T11:54:09;9.30;65.80
19947;DHT22;10135;50.702;7.276;2024-01-06T11:56:10;9.30;66.00
19947;DHT22;10135;50.702;7.276;2024-01-06T11:58:10;9.30;65.90
19947;DHT22;10135;50.702;7.276;2024-01-06T12:00:12;9.30;66.00
19947;DHT22;10135;50.702;7.276;2024-01-06T12:02:18;9.30;66.00
19947;DHT22;10135;50.702;7.276;2024-01-06T12:04:19;9.30;66.00
19947;DHT22;10135;50.702;7.276;2024-01-06T12:06:22;9.30;66.00
19947;DHT22;10135;50.702;7.276;2024-01-06T12:08:23;9.30;66.00
19947;DHT22;10135;50.702;7.276;2024-01-06T12:10:25;9.30;66.00
19947;DHT22;10135;50.702;7.276;2024-01-06T12:12:27;9.30;66.00
19947;DHT22;10135;50.702;7.276;2024-01-06T12:14:28;9.30;66.00
19947;DHT22;10135;50.702;7.276;2024-01-06T12:16:28;9.30;66.00
19947;DHT22;10135;50.702;7.276;2024-01-06T12:18:30;9.20;66.00
19947;DHT22;10135;50.702;7.276;2024-01-06T12:20:31;9.30;66.00
19947;DHT22;10135;50.702;7.276;2024-01-06T12:22:32;9.30;66.00
19947;DHT22;10135;50.702;7.276;2024-01-06T12:24:33;9.30;66.10
19947;DHT22;10135;50.702;7.276;2024-01-06T12:26:33;9.30;66.10
19947;DHT22;10135;50.702;7.276;2024-01-06T12:28:37;9.30;66.20
19947;DHT22;10135;50.702;7.276;2024-01-06T12:30:38;9.30;66.20
19947;DHT22;10135;50.702;7.276;2024-01-06T12:32:39;9.30;66.10
19947;DHT22;10135;50.702;7.276;2024-01-06T12:34:40;9.20;66.00
19947;DHT22;10135;50.702;7.276;2024-01-06T12:36:41;9.20;66.00
19947;DHT22;10135;50.702;7.276;2024-01-06T12:38:45;9.30;66.20
19947;DHT22;10135;50.702;7.276;2024-01-06T12:40:46;9.20;66.10
19947;DHT22;10135;50.702;7.276;2024-01-06T12:42:47;9.20;66.20
19947;DHT22;10135;50.702;7.276;2024-01-06T12:44:47;9.20;66.20
19947;DHT22;10135;50.702;7.276;2024-01-06T12:46:48;9.20;66.20
19947;DHT22;10135;50.702;7.276;2024-01-06T12:48:49;9.20;66.20
19947;DHT22;10135;50.702;7.276;2024-01-06T12:50:50;9.10;66.20
19947;DHT22;10135;50.702;7.276;2024-01-06T12:52:51;9.20;66.30
19947;DHT22;10135;50.702;7.276;2024-01-06T12:54:51;9.20;66.30
19947;DHT22;10135;50.702;7.276;2024-01-06T12:56:52;9.10;66.20
19947;DHT22;10135;50.702;7.276;2024-01-06T12:58:53;9.10;66.20
19947;DHT22;10135;50.702;7.276;2024-01-06T13:00:54;9.10;66.20
19947;DHT22;10135;50.702;7.276;2024-01-06T13:02:55;9.10;66.30
19947;DHT22;10135;50.702;7.276;2024-01-06T13:04:56;9.20;66.40
19947;DHT22;10135;50.702;7.276;2024-01-06T13:06:57;9.20;66.30
19947;DHT22;10135;50.702;7.276;2024-01-06T13:08:58;9.10;66.30
19947;DHT22;10135;50.702;7.276;2024-01-06T13:10:58;9.10;66.30
19947;DHT22;10135;50.702;7.276;2024-01-06T13:12:59;9.10;66.30
19947;DHT22;10135;50.702;7.276;2024-01-06T13:15:00;9.20;66.40
19947;DHT22;10135;50.702;7.276;2024-01-06T13:17:01;9.10;66.40
19947;DHT22;10135;50.702;7.276;2024-01-06T13:19:02;9.20;66.40
19947;DHT22;10135;50.702;7.276;2024-01-06T13:21:03;9.20;66.50
19947;DHT22;10135;50.702;7.276;2024-01-06T13:23:04;9.20;66.50
19947;DHT22;10135;50.702;7.276;2024-01-06T13:25:07;9.20;66.50
19947;DHT22;10135;50.702;7.276;2024-01-06T13:27:09;9.20;66.40
19947;DHT22;10135;50.702;7.276;2024-01-06T13:29:09;9.20;66.40
19947;DHT22;10135;50.702;7.276;2024-01-06T13:31:10;9.20;66.40
19947;DHT22;10135;50.702;7.276;2024-01-06T13:33:11;9.20;66.40
19947;DHT22;10135;50.702;7.276;2024-01-06T13:35:11;9.20;66.40
19947;DHT22;10135;50.702;7.276;2024-01-06T13:37:12;9.20;66.40
19947;DHT22;10135;50.702;7.276;2024-01-06T13:39:13;9.20;66.40
19947;DHT22;10135;50.702;7.276;2024-01-06T13:41:21;9.20;66.40
19947;DHT22;10135;50.702;7.276;2024-01-06T13:43:21;9.20;66.40
19947;DHT22;10135;50.702;7.276;2024-01-06T13:45:23;9.20;66.50
19947;DHT22;10135;50.702;7.276;2024-01-06T13:47:24;9.20;66.50
19947;DHT22;10135;50.702;7.276;2024-01-06T13:49:24;9.20;66.50
19947;DHT22;10135;50.702;7.276;2024-01-06T13:51:25;9.20;66.40
19947;DHT22;10135;50.702;7.276;2024-01-06T13:53:26;9.20;66.50
19947;DHT22;10135;50.702;7.276;2024-01-06T13:55:27;9.10;66.40
19947;DHT22;10135;50.702;7.276;2024-01-06T13:57:27;9.10;66.40
19947;DHT22;10135;50.702;7.276;2024-01-06T13:59:28;9.10;66.40
19947;DHT22;10135;50.702;7.276;2024-01-06T14:01:29;9.10;66.50
19947;DHT22;10135;50.702;7.276;2024-01-06T14:03:31;9.10;66.40
19947;DHT22;10135;50.702;7.276;2024-01-06T14:05:32;9.10;66.50
19947;DHT22;10135;50.702;7.276;2024-01-06T14:07:34;9.10;66.50
19947;DHT22;10135;50.702;7.276;2024-01-06T14:09:35;9.00;66.50
19947;DHT22;10135;50.702;7.276;2024-01-06T14:11:36;9.00;66.50
19947;DHT22;10135;50.702;7.276;2024-01-06T14:13:37;9.00;66.50
19947;DHT22;10135;50.702;7.276;2024-01-06T14:15:38;9.00;66.50
19947;DHT22;10135;50.702;7.276;2024-01-06T14:17:38;9.00;66.60
19947;DHT22;10135;50.702;7.276;2024-01-06T14:19:41;9.00;66.70
19947;DHT22;10135;50.702;7.276;2024-01-06T14:21:42;9.00;66.70
19947;DHT22;10135;50.702;7.276;2024-01-06T14:23:43;9.00;66.70
19947;DHT22;10135;50.702;7.276;2024-01-06T14:25:43;9.00;66.70
19947;DHT22;10135;50.702;7.276;2024-01-06T14:27:45;9.00;66.70
19947;DHT22;10135;50.702;7.276;2024-01-06T14:29:46;9.00;66.90
19947;DHT22;10135;50.702;7.276;2024-01-06T14:31:47;9.00;66.80
19947;DHT22;10135;50.702;7.276;2024-01-06T14:33:48;9.00;66.80
19947;DHT22;10135;50.702;7.276;2024-01-06T14:35:49;9.00;66.70
19947;DHT22;10135;50.702;7.276;2024-01-06T14:37:50;8.90;66.70
19947;DHT22;10135;50.702;7.276;2024-01-06T14:39:53;8.90;66.70
19947;DHT22;10135;50.702;7.276;2024-01-06T14:41:54;8.90;66.70
19947;DHT22;10135;50.702;7.276;2024-01-06T14:43:55;8.90;66.70
19947;DHT22;10135;50.702;7.276;2024-01-06T14:45:55;8.90;66.70
19947;DHT22;10135;50.702;7.276;2024-01-06T14:47:56;8.90;66.70
19947;DHT22;10135;50.702;7.276;2024-01-06T14:49:57;8.90;66.80
19947;DHT22;10135;50.702;7.276;2024-01-06T14:51:57;8.90;66.80
19947;DHT22;10135;50.702;7.276;2024-01-06T14:53:58;8.80;66.80
19947;DHT22;10135;50.702;7.276;2024-01-06T14:56:00;8.80;66.80
19947;DHT22;10135;50.702;7.276;2024-01-06T14:58:01;8.90;67.00
19947;DHT22;10135;50.702;7.276;2024-01-06T15:00:02;8.90;66.90
19947;DHT22;10135;50.702;7.276;2024-01-06T15:02:05;8.80;66.90
19947;DHT22;10135;50.702;7.276;2024-01-06T15:04:06;8.80;66.90
19947;DHT22;10135;50.702;7.276;2024-01-06T15:06:07;8.80;66.90
19947;DHT22;10135;50.702;7.276;2024-01-06T15:08:08;8.80;66.90
19947;DHT22;10135;50.702;7.276;2024-01-06T15:10:09;8.80;67.00
19947;DHT22;10135;50.702;7.276;2024-01-06T15:12:10;8.80;66.90
19947;DHT22;10135;50.702;7.276;2024-01-06T15:14:11;8.80;66.90
19947;DHT22;10135;50.702;7.276;2024-01-06T15:16:12;8.80;66.90
19947;DHT22;10135;50.702;7.276;2024-01-06T15:18:13;8.80;67.00
19947;DHT22;10135;50.702;7.276;2024-01-06T15:20:14;8.80;67.00
19947;DHT22;10135;50.702;7.276;2024-01-06T15:22:14;8.80;67.00
19947;DHT22;10135;50.702;7.276;2024-01-06T15:24:16;8.80;67.10
19947;DHT22;10135;50.702;7.276;2024-01-06T15:26:22;8.70;66.90
19947;DHT22;10135;50.702;7.276;2024-01-06T15:28:23;8.70;67.10
19947;DHT22;10135;50.702;7.276;2024-01-06T15:30:24;8.80;66.90
19947;DHT22;10135;50.702;7.276;2024-01-06T15:32:24;8.70;66.90
19947;DHT22;10135;50.702;7.276;2024-01-06T15:34:25;8.70;66.90
19947;DHT22;10135;50.702;7.276;2024-01-06T15:36:26;8.70;66.80
19947;DHT22;10135;50.702;7.276;2024-01-06T15:38:27;8.70;66.80
19947;DHT22;10135;50.702;7.276;2024-01-06T15:40:27;8.60;66.90
19947;DHT22;10135;50.702;7.276;2024-01-06T15:42:28;8.60;66.90
19947;DHT22;10135;50.702;7.276;2024-01-06T15:44:30;8.60;66.90
19947;DHT22;10135;50.702;7.276;2024-01-06T15:46:33;8.60;66.90
19947;DHT22;10135;50.702;7.276;2024-01-06T15:48:34;8.50;66.90
19947;DHT22;10135;50.702;7.276;2024-01-06T15:50:36;8.50;67.70
19947;DHT22;10135;50.702;7.276;2024-01-06T15:52:37;8.50;66.90
19947;DHT22;10135;50.702;7.276;2024-01-06T15:54:37;8.50;67.00
19947;DHT22;10135;50.702;7.276;2024-01-06T15:56:38;8.50;66.90
19947;DHT22;10135;50.702;7.276;2024-01-06T15:58:39;8.40;66.90
19947;DHT22;10135;50.702;7.276;2024-01-06T16:00:39;8.40;67.00
19947;DHT22;10135;50.702;7.276;2024-01-06T16:02:40;8.40;67.00
19947;DHT22;10135;50.702;7.276;2024-01-06T16:04:40;8.40;67.00
19947;DHT22;10135;50.702;7.276;2024-01-06T16:06:41;8.40;67.10
19947;DHT22;10135;50.702;7.276;2024-01-06T16:08:42;8.40;67.20
19947;DHT22;10135;50.702;7.276;2024-01-06T16:10:42;8.40;67.20
19947;DHT22;10135;50.702;7.276;2024-01-06T16:12:43;8.40;67.30
19947;DHT22;10135;50.702;7.276;2024-01-06T16:14:44;8.40;67.20
19947;DHT22;10135;50.702;7.276;2024-01-06T16:16:44;8.40;67.30
19947;DHT22;10135;50.702;7.276;2024-01-06T16:18:45;8.40;67.30
19947;DHT22;10135;50.702;7.276;2024-01-06T16:20:46;8.40;67.20
19947;DHT22;10135;50.702;7.276;2024-01-06T16:22:48;8.40;67.30
19947;DHT22;10135;50.702;7.276;2024-01-06T16:24:50;8.30;67.10
19947;DHT22;10135;50.702;7.276;2024-01-06T16:26:52;8.30;67.00
19947;DHT22;10135;50.702;7.276;2024-01-06T16:28:53;8.30;67.10
19947;DHT22;10135;50.702;7.276;2024-01-06T16:30:53;8.30;67.00
19947;DHT22;10135;50.702;7.276;2024-01-06T16:32:54;8.20;67.10
19947;DHT22;10135;50.702;7.276;2024-01-06T16:34:55;8.20;67.10
19947;DHT22;10135;50.702;7.276;2024-01-06T16:36:55;8.20;67.20
19947;DHT22;10135;50.702;7.276;2024-01-06T16:38:56;8.20;67.10
19947;DHT22;10135;50.702;7.276;2024-01-06T16:40:57;8.20;67.20
19947;DHT22;10135;50.702;7.276;2024-01-06T16:42:57;8.20;67.30
19947;DHT22;10135;50.702;7.276;2024-01-06T16:44:58;8.20;67.30
19947;DHT22;10135;50.702;7.276;2024-01-06T16:46:59;8.20;67.20
19947;DHT22;10135;50.702;7.276;2024-01-06T16:48:59;8.10;67.20
19947;DHT22;10135;50.702;7.276;2024-01-06T16:51:00;8.10;67.20
19947;DHT22;10135;50.702;7.276;2024-01-06T16:53:00;8.10;67.20
19947;DHT22;10135;50.702;7.276;2024-01-06T16:55:02;8.10;67.30
19947;DHT22;10135;50.702;7.276;2024-01-06T16:57:03;8.10;67.30
19947;DHT22;10135;50.702;7.276;2024-01-06T16:59:04;8.10;67.30
19947;DHT22;10135;50.702;7.276;2024-01-06T17:01:04;8.10;67.30
19947;DHT22;10135;50.702;7.276;2024-01-06T17:03:06;8.10;67.30
19947;DHT22;10135;50.702;7.276;2024-01-06T17:05:08;8.10;67.30
19947;DHT22;10135;50.702;7.276;2024-01-06T17:07:09;8.10;67.30
19947;DHT22;10135;50.702;7.276;2024-01-06T17:09:09;8.10;67.40
19947;DHT22;10135;50.702;7.276;2024-01-06T17:11:12;8.10;67.30
19947;DHT22;10135;50.702;7.276;2024-01-06T17:13:12;8.00;67.20
19947;DHT22;10135;50.702;7.276;2024-01-06T17:15:13;8.00;67.30
19947;DHT22;10135;50.702;7.276;2024-01-06T17:17:14;8.00;67.40
19947;DHT22;10135;50.702;7.276;2024-01-06T17:19:15;8.00;67.40
19947;DHT22;10135;50.702;7.276;2024-01-06T17:21:15;8.00;67.40
19947;DHT22;10135;50.702;7.276;2024-01-06T17:23:17;8.00;67.50
19947;DHT22;10135;50.702;7.276;2024-01-06T17:25:18;8.00;67.40
19947;DHT22;10135;50.702;7.276;2024-01-06T17:27:19;7.90;67.40
19947;DHT22;10135;50.702;7.276;2024-01-06T17:29:19;8.00;67.50
19947;DHT22;10135;50.702;7.276;2024-01-06T17:31:20;7.90;67.40
19947;DHT22;10135;50.702;7.276;2024-01-06T17:33:21;7.90;67.40
19947;DHT22;10135;50.702;7.276;2024-01-06T17:35:21;7.90;67.50
19947;DHT22;10135;50.702;7.276;2024-01-06T17:37:22;7.90;67.50
19947;DHT22;10135;50.702;7.276;2024-01-06T17:39:23;7.90;67.50
19947;DHT22;10135;50.702;7.276;2024-01-06T17:41:24;7.90;67.60
19947;DHT22;10135;50.702;7.276;2024-01-06T17:43:25;7.90;67.60
19947;DHT22;10135;50.702;7.276;2024-01-06T17:45:25;7.90;67.50
19947;DHT22;10135;50.702;7.276;2024-01-06T17:47:26;7.90;67.50
19947;DHT22;10135;50.702;7.276;2024-01-06T17:49:27;7.80;67.40
19947;DHT22;10135;50.702;7.276;2024-01-06T17:51:27;7.90;67.40
19947;DHT22;10135;50.702;7.276;2024-01-06T17:53:29;7.80;67.40
19947;DHT22;10135;50.702;7.276;2024-01-06T17:55:30;7.80;67.40
19947;DHT22;10135;50.702;7.276;2024-01-06T17:57:30;7.80;67.30
19947;DHT22;10135;50.702;7.276;2024-01-06T17:59:34;7.70;67.30
19947;DHT22;10135;50.702;7.276;2024-01-06T18:01:36;7.70;67.30
19947;DHT22;10135;50.702;7.276;2024-01-06T18:03:37;7.70;67.40
19947;DHT22;10135;50.702;7.276;2024-01-06T18:05:37;7.70;67.40
19947;DHT22;10135;50.702;7.276;2024-01-06T18:07:38;7.70;67.50
19947;DHT22;10135;50.702;7.276;2024-01-06T18:09:39;7.60;67.50
19947;DHT22;10135;50.702;7.276;2024-01-06T18:11:40;7.60;67.50
19947;DHT22;10135;50.702;7.276;2024-01-06T18:13:41;7.60;67.50
19947;DHT22;10135;50.702;7.276;2024-01-06T18:15:42;7.60;67.50
19947;DHT22;10135;50.702;7.276;2024-01-06T18:17:43;7.60;67.50
19947;DHT22;10135;50.702;7.276;2024-01-06T18:19:43;7.60;67.50
19947;DHT22;10135;50.702;7.276;2024-01-06T18:21:44;7.50;67.50
19947;DHT22;10135;50.702;7.276;2024-01-06T18:23:45;7.50;67.50
19947;DHT22;10135;50.702;7.276;2024-01-06T18:25:45;7.50;67.60
19947;DHT22;10135;50.702;7.276;2024-01-06T18:27:46;7.50;68.30
19947;DHT22;10135;50.702;7.276;2024-01-06T18:29:47;7.50;67.60
19947;DHT22;10135;50.702;7.276;2024-01-06T18:31:48;7.50;67.60
19947;DHT22;10135;50.702;7.276;2024-01-06T18:33:49;7.50;67.70
19947;DHT22;10135;50.702;7.276;2024-01-06T18:35:50;7.50;67.70
19947;DHT22;10135;50.702;7.276;2024-01-06T18:37:51;7.50;67.70
19947;DHT22;10135;50.702;7.276;2024-01-06T18:39:51;7.50;67.70
19947;DHT22;10135;50.702;7.276;2024-01-06T18:41:52;7.50;67.70
19947;DHT22;10135;50.702;7.276;2024-01-06T18:43:55;7.50;67.70
19947;DHT22;10135;50.702;7.276;2024-01-06T18:45:56;7.50;67.70
19947;DHT22;10135;50.702;7.276;2024-01-06T18:47:56;7.50;67.70
19947;DHT22;10135;50.702;7.276;2024-01-06T18:49:57;7.50;67.60
19947;DHT22;10135;50.702;7.276;2024-01-06T18:51:58;7.50;67.70
19947;DHT22;10135;50.702;7.276;2024-01-06T18:53:59;7.50;67.70
19947;DHT22;10135;50.702;7.276;2024-01-06T18:55:59;7.50;67.70
19947;DHT22;10135;50.702;7.276;2024-01-06T18:58:02;7.40;67.70
19947;DHT22;10135;50.702;7.276;2024-01-06T19:00:03;7.50;67.70
19947;DHT22;10135;50.702;7.276;2024-01-06T19:02:06;7.40;67.70
19947;DHT22;10135;50.702;7.276;2024-01-06T19:04:11;7.50;67.70
19947;DHT22;10135;50.702;7.276;2024-01-06T19:06:11;7.40;67.70
19947;DHT22;10135;50.702;7.276;2024-01-06T19:08:12;7.40;67.70
19947;DHT22;10135;50.702;7.276;2024-01-06T19:10:13;7.40;67.70
19947;DHT22;10135;50.702;7.276;2024-01-06T19:12:14;7.40;67.70
19947;DHT22;10135;50.702;7.276;2024-01-06T19:14:15;7.40;67.80
19947;DHT22;10135;50.702;7.276;2024-01-06T19:16:15;7.40;67.70
19947;DHT22;10135;50.702;7.276;2024-01-06T19:18:16;7.40;67.70
19947;DHT22;10135;50.702;7.276;2024-01-06T19:20:17;7.40;67.80
19947;DHT22;10135;50.702;7.276;2024-01-06T19:22:19;7.50;67.80
19947;DHT22;10135;50.702;7.276;2024-01-06T19:24:19;7.40;67.70
19947;DHT22;10135;50.702;7.276;2024-01-06T19:26:20;7.50;67.70
19947;DHT22;10135;50.702;7.276;2024-01-06T19:28:21;7.40;67.70
19947;DHT22;10135;50.702;7.276;2024-01-06T19:30:21;7.40;67.70